Terminal Aerodrome Forecast
Issued by NWS

Home | Current Version | Previous Version | Text Only | Print | Product List | Glossary On
Versions: 1 2 3 4 5 6 7 8 9 10 11 12 13 14 15 16 17 18 19 20 21 22 23 24 25 26 27 28 29 30 31 32 33 34 35 36 37 38 39 40
000
FTUS41 KALY 030901 AAD
TAFPSF
TAF AMD
KPSF 030901Z 0309/0406 VRB03KT 2SM BR SCT003 BKN035
      TEMPO 0309/0313 1/2SM FG BKN002 BKN035
     FM031300 33005KT P6SM SKC
     FM040000 00000KT P6SM SKC=

USA.gov is the U.S. government's official web portal to all federal, state and local government web resources and services.